Johannesburg, South Africa
Current Conditions -  °F | °C
As of 10:00 PM on Saturday 25 Oct 2014 (Local Time) from FAOR Reporting Station
Rain Showers Rain Showers  
Wind Chill: 55°   Ceiling: Unl
Heat Index: 55°   Visibility: 2.5mi
Dew Point: 54°   Wind: 8mph
Humidity: 94%   Direction: NA
Pressure: 30.33"   Gusts: 25mph
Location:  26.19°S, 28.04°E
Report Text: FAOR 252000Z VRB07G22KT 4000 SHRA SCT002 SCT020CB 13/12 Q1027 RETSRA NOSIG
Loading
Personal Weather Stations






























Interactive Weather Map New forecast layout! Learn more

10-Day Weather Forecast

Advertisements
Track Severe Weather on mobile